sensor_id;sensor_type;location;lat;lon;timestamp;P1;durP1;ratioP1;P2;durP2;ratioP2
37273;SDS011;23161;51.250;5.554;2022-10-16T00:02:24;1.08;;;1.08;;
37273;SDS011;23161;51.250;5.554;2022-10-16T00:04:50;3.20;;;1.40;;
37273;SDS011;23161;51.250;5.554;2022-10-16T00:07:17;2.53;;;1.38;;
37273;SDS011;23161;51.250;5.554;2022-10-16T00:09:43;1.27;;;1.17;;
37273;SDS011;23161;51.250;5.554;2022-10-16T00:12:08;1.20;;;1.10;;
37273;SDS011;23161;51.250;5.554;2022-10-16T00:14:34;3.17;;;1.75;;
37273;SDS011;23161;51.250;5.554;2022-10-16T00:17:00;4.38;;;1.98;;
37273;SDS011;23161;51.250;5.554;2022-10-16T00:19:26;3.00;;;1.63;;
37273;SDS011;23161;51.250;5.554;2022-10-16T00:21:52;1.75;;;1.15;;
37273;SDS011;23161;51.250;5.554;2022-10-16T00:24:18;4.97;;;1.50;;
37273;SDS011;23161;51.250;5.554;2022-10-16T00:26:44;2.83;;;1.00;;
37273;SDS011;23161;51.250;5.554;2022-10-16T00:29:10;1.30;;;1.20;;
37273;SDS011;23161;51.250;5.554;2022-10-16T00:31:36;1.05;;;1.00;;
37273;SDS011;23161;51.250;5.554;2022-10-16T00:34:02;1.52;;;1.23;;
37273;SDS011;23161;51.250;5.554;2022-10-16T00:36:28;2.30;;;1.50;;
37273;SDS011;23161;51.250;5.554;2022-10-16T00:38:54;1.05;;;1.00;;
37273;SDS011;23161;51.250;5.554;2022-10-16T00:41:23;1.17;;;1.17;;
37273;SDS011;23161;51.250;5.554;2022-10-16T00:43:51;2.08;;;1.65;;
37273;SDS011;23161;51.250;5.554;2022-10-16T00:51:34;0.38;;;0.38;;
37273;SDS011;23161;51.250;5.554;2022-10-16T00:56:47;2.72;;;1.42;;
37273;SDS011;23161;51.250;5.554;2022-10-16T00:59:16;0.50;;;0.50;;
37273;SDS011;23161;51.250;5.554;2022-10-16T01:01:47;1.60;;;1.50;;
37273;SDS011;23161;51.250;5.554;2022-10-16T01:04:13;0.88;;;0.73;;
37273;SDS011;23161;51.250;5.554;2022-10-16T01:31:45;0.80;;;0.80;;
37273;SDS011;23161;51.250;5.554;2022-10-16T01:34:15;0.35;;;0.30;;
37273;SDS011;23161;51.250;5.554;2022-10-16T01:36:46;0.70;;;0.65;;
37273;SDS011;23161;51.250;5.554;2022-10-16T01:39:22;1.08;;;0.98;;
37273;SDS011;23161;51.250;5.554;2022-10-16T01:41:55;0.98;;;0.98;;
37273;SDS011;23161;51.250;5.554;2022-10-16T01:44:29;0.60;;;0.60;;
37273;SDS011;23161;51.250;5.554;2022-10-16T01:46:57;2.05;;;1.40;;
37273;SDS011;23161;51.250;5.554;2022-10-16T01:49:25;1.50;;;0.90;;
37273;SDS011;23161;51.250;5.554;2022-10-16T01:51:55;2.10;;;0.57;;
37273;SDS011;23161;51.250;5.554;2022-10-16T01:54:25;1.65;;;0.85;;
37273;SDS011;23161;51.250;5.554;2022-10-16T01:56:53;0.75;;;0.75;;
37273;SDS011;23161;51.250;5.554;2022-10-16T01:59:21;3.95;;;1.95;;
37273;SDS011;23161;51.250;5.554;2022-10-16T02:01:52;3.53;;;1.38;;
37273;SDS011;23161;51.250;5.554;2022-10-16T02:04:29;0.68;;;0.57;;
37273;SDS011;23161;51.250;5.554;2022-10-16T02:06:58;2.28;;;0.60;;
37273;SDS011;23161;51.250;5.554;2022-10-16T02:09:25;2.42;;;0.82;;
37273;SDS011;23161;51.250;5.554;2022-10-16T02:11:52;2.58;;;0.95;;
37273;SDS011;23161;51.250;5.554;2022-10-16T02:14:22;0.82;;;0.70;;
37273;SDS011;23161;51.250;5.554;2022-10-16T02:16:49;1.65;;;1.10;;
37273;SDS011;23161;51.250;5.554;2022-10-16T02:19:17;1.88;;;0.82;;
37273;SDS011;23161;51.250;5.554;2022-10-16T02:21:49;7.20;;;0.90;;
37273;SDS011;23161;51.250;5.554;2022-10-16T02:24:31;0.60;;;0.60;;
37273;SDS011;23161;51.250;5.554;2022-10-16T02:29:30;2.95;;;0.65;;
37273;SDS011;23161;51.250;5.554;2022-10-16T02:32:01;2.95;;;1.10;;
37273;SDS011;23161;51.250;5.554;2022-10-16T02:34:30;3.10;;;0.90;;
37273;SDS011;23161;51.250;5.554;2022-10-16T02:36:58;1.40;;;1.23;;
37273;SDS011;23161;51.250;5.554;2022-10-16T02:39:27;0.70;;;0.70;;
37273;SDS011;23161;51.250;5.554;2022-10-16T02:41:54;0.40;;;0.32;;
37273;SDS011;23161;51.250;5.554;2022-10-16T02:44:19;1.45;;;0.77;;
37273;SDS011;23161;51.250;5.554;2022-10-16T02:46:46;0.50;;;0.50;;
37273;SDS011;23161;51.250;5.554;2022-10-16T02:49:12;2.45;;;0.93;;
37273;SDS011;23161;51.250;5.554;2022-10-16T02:51:37;0.68;;;0.68;;
37273;SDS011;23161;51.250;5.554;2022-10-16T02:54:03;14.80;;;1.10;;
37273;SDS011;23161;51.250;5.554;2022-10-16T02:56:29;2.67;;;0.32;;
37273;SDS011;23161;51.250;5.554;2022-10-16T02:58:56;2.05;;;1.38;;
37273;SDS011;23161;51.250;5.554;2022-10-16T03:01:22;4.10;;;1.58;;
37273;SDS011;23161;51.250;5.554;2022-10-16T03:03:49;4.10;;;1.27;;
37273;SDS011;23161;51.250;5.554;2022-10-16T03:06:14;1.30;;;1.15;;
37273;SDS011;23161;51.250;5.554;2022-10-16T03:08:41;0.60;;;0.60;;
37273;SDS011;23161;51.250;5.554;2022-10-16T03:11:06;0.75;;;0.73;;
37273;SDS011;23161;51.250;5.554;2022-10-16T03:13:32;0.40;;;0.40;;
37273;SDS011;23161;51.250;5.554;2022-10-16T03:15:58;2.35;;;0.77;;
37273;SDS011;23161;51.250;5.554;2022-10-16T03:18:24;3.45;;;1.00;;
37273;SDS011;23161;51.250;5.554;2022-10-16T03:20:50;3.75;;;0.77;;
37273;SDS011;23161;51.250;5.554;2022-10-16T03:23:15;0.73;;;0.73;;
37273;SDS011;23161;51.250;5.554;2022-10-16T03:25:41;1.35;;;0.35;;
37273;SDS011;23161;51.250;5.554;2022-10-16T03:28:08;1.13;;;0.90;;
37273;SDS011;23161;51.250;5.554;2022-10-16T03:30:34;0.80;;;0.80;;
37273;SDS011;23161;51.250;5.554;2022-10-16T03:33:00;0.88;;;0.80;;
37273;SDS011;23161;51.250;5.554;2022-10-16T03:35:25;0.73;;;0.73;;
37273;SDS011;23161;51.250;5.554;2022-10-16T03:37:51;1.83;;;1.13;;
37273;SDS011;23161;51.250;5.554;2022-10-16T03:40:18;5.88;;;1.20;;
37273;SDS011;23161;51.250;5.554;2022-10-16T03:42:44;0.80;;;0.80;;
37273;SDS011;23161;51.250;5.554;2022-10-16T03:45:10;3.92;;;0.93;;
37273;SDS011;23161;51.250;5.554;2022-10-16T03:47:36;1.30;;;1.20;;
37273;SDS011;23161;51.250;5.554;2022-10-16T03:50:03;1.20;;;1.20;;
37273;SDS011;23161;51.250;5.554;2022-10-16T03:52:29;0.93;;;0.75;;
37273;SDS011;23161;51.250;5.554;2022-10-16T03:54:55;1.45;;;1.35;;
37273;SDS011;23161;51.250;5.554;2022-10-16T03:57:21;1.40;;;1.08;;
37273;SDS011;23161;51.250;5.554;2022-10-16T03:59:47;1.40;;;0.85;;
37273;SDS011;23161;51.250;5.554;2022-10-16T04:02:12;0.90;;;0.63;;
37273;SDS011;23161;51.250;5.554;2022-10-16T04:04:38;0.77;;;0.73;;
37273;SDS011;23161;51.250;5.554;2022-10-16T04:07:05;1.30;;;1.17;;
37273;SDS011;23161;51.250;5.554;2022-10-16T04:09:31;1.52;;;1.05;;
37273;SDS011;23161;51.250;5.554;2022-10-16T04:11:56;1.13;;;0.98;;
37273;SDS011;23161;51.250;5.554;2022-10-16T04:14:22;4.38;;;1.02;;
37273;SDS011;23161;51.250;5.554;2022-10-16T04:16:48;0.55;;;0.55;;
37273;SDS011;23161;51.250;5.554;2022-10-16T04:19:14;1.00;;;1.00;;
37273;SDS011;23161;51.250;5.554;2022-10-16T04:21:40;2.08;;;1.20;;
37273;SDS011;23161;51.250;5.554;2022-10-16T04:24:06;1.10;;;0.98;;
37273;SDS011;23161;51.250;5.554;2022-10-16T04:26:31;1.42;;;0.90;;
37273;SDS011;23161;51.250;5.554;2022-10-16T04:28:57;1.27;;;1.17;;
37273;SDS011;23161;51.250;5.554;2022-10-16T04:31:23;1.67;;;0.88;;
37273;SDS011;23161;51.250;5.554;2022-10-16T04:33:49;1.42;;;1.35;;
37273;SDS011;23161;51.250;5.554;2022-10-16T04:36:14;1.17;;;1.00;;
37273;SDS011;23161;51.250;5.554;2022-10-16T04:38:40;1.60;;;1.17;;
37273;SDS011;23161;51.250;5.554;2022-10-16T04:41:06;1.05;;;1.00;;
37273;SDS011;23161;51.250;5.554;2022-10-16T04:43:33;1.33;;;1.05;;
37273;SDS011;23161;51.250;5.554;2022-10-16T04:46:00;1.10;;;0.70;;
37273;SDS011;23161;51.250;5.554;2022-10-16T04:48:26;1.38;;;0.70;;
37273;SDS011;23161;51.250;5.554;2022-10-16T04:50:52;2.40;;;1.10;;
37273;SDS011;23161;51.250;5.554;2022-10-16T04:53:18;2.47;;;0.50;;
37273;SDS011;23161;51.250;5.554;2022-10-16T04:55:44;2.47;;;1.27;;
37273;SDS011;23161;51.250;5.554;2022-10-16T04:58:10;1.17;;;1.08;;
37273;SDS011;23161;51.250;5.554;2022-10-16T05:00:36;2.70;;;1.23;;
37273;SDS011;23161;51.250;5.554;2022-10-16T05:03:03;0.90;;;0.90;;
37273;SDS011;23161;51.250;5.554;2022-10-16T05:05:32;0.80;;;0.70;;
37273;SDS011;23161;51.250;5.554;2022-10-16T05:07:58;0.40;;;0.40;;
37273;SDS011;23161;51.250;5.554;2022-10-16T05:10:24;2.85;;;1.00;;
37273;SDS011;23161;51.250;5.554;2022-10-16T05:12:50;1.50;;;1.40;;
37273;SDS011;23161;51.250;5.554;2022-10-16T05:15:16;1.10;;;1.02;;
37273;SDS011;23161;51.250;5.554;2022-10-16T05:17:42;2.03;;;0.73;;
37273;SDS011;23161;51.250;5.554;2022-10-16T05:20:08;0.80;;;0.80;;
37273;SDS011;23161;51.250;5.554;2022-10-16T05:22:34;1.65;;;1.33;;
37273;SDS011;23161;51.250;5.554;2022-10-16T05:25:00;4.57;;;1.20;;
37273;SDS011;23161;51.250;5.554;2022-10-16T05:27:27;1.17;;;1.08;;
37273;SDS011;23161;51.250;5.554;2022-10-16T05:29:53;1.25;;;1.02;;
37273;SDS011;23161;51.250;5.554;2022-10-16T05:32:19;10.05;;;1.65;;
37273;SDS011;23161;51.250;5.554;2022-10-16T05:34:45;1.20;;;1.00;;
37273;SDS011;23161;51.250;5.554;2022-10-16T05:37:11;1.15;;;1.05;;
37273;SDS011;23161;51.250;5.554;2022-10-16T05:39:38;0.90;;;0.63;;
37273;SDS011;23161;51.250;5.554;2022-10-16T05:42:04;1.27;;;0.90;;
37273;SDS011;23161;51.250;5.554;2022-10-16T05:44:31;0.85;;;0.85;;
37273;SDS011;23161;51.250;5.554;2022-10-16T05:47:30;0.80;;;0.80;;
37273;SDS011;23161;51.250;5.554;2022-10-16T05:49:56;6.63;;;1.15;;
37273;SDS011;23161;51.250;5.554;2022-10-16T05:52:21;0.65;;;0.65;;
37273;SDS011;23161;51.250;5.554;2022-10-16T05:54:47;1.23;;;1.08;;
37273;SDS011;23161;51.250;5.554;2022-10-16T05:57:14;1.15;;;1.05;;
37273;SDS011;23161;51.250;5.554;2022-10-16T05:59:39;1.42;;;1.23;;
37273;SDS011;23161;51.250;5.554;2022-10-16T06:02:05;0.80;;;0.80;;
37273;SDS011;23161;51.250;5.554;2022-10-16T06:04:33;1.88;;;1.77;;
37273;SDS011;23161;51.250;5.554;2022-10-16T06:07:00;0.85;;;0.85;;
37273;SDS011;23161;51.250;5.554;2022-10-16T06:09:26;1.65;;;1.55;;
37273;SDS011;23161;51.250;5.554;2022-10-16T06:11:52;1.20;;;1.02;;
37273;SDS011;23161;51.250;5.554;2022-10-16T06:14:17;1.48;;;1.20;;
37273;SDS011;23161;51.250;5.554;2022-10-16T06:16:43;3.88;;;1.75;;
37273;SDS011;23161;51.250;5.554;2022-10-16T06:19:10;2.42;;;1.63;;
37273;SDS011;23161;51.250;5.554;2022-10-16T06:21:36;1.23;;;1.13;;
37273;SDS011;23161;51.250;5.554;2022-10-16T06:24:02;0.70;;;0.70;;
37273;SDS011;23161;51.250;5.554;2022-10-16T06:26:29;1.75;;;1.63;;
37273;SDS011;23161;51.250;5.554;2022-10-16T06:28:56;6.78;;;1.92;;
37273;SDS011;23161;51.250;5.554;2022-10-16T06:31:24;2.40;;;1.23;;
37273;SDS011;23161;51.250;5.554;2022-10-16T06:33:55;3.30;;;1.35;;
37273;SDS011;23161;51.250;5.554;2022-10-16T06:36:22;1.17;;;1.00;;
37273;SDS011;23161;51.250;5.554;2022-10-16T06:38:49;1.88;;;1.77;;
37273;SDS011;23161;51.250;5.554;2022-10-16T06:41:15;1.45;;;1.17;;
37273;SDS011;23161;51.250;5.554;2022-10-16T06:43:43;3.20;;;1.40;;
37273;SDS011;23161;51.250;5.554;2022-10-16T06:46:12;7.88;;;2.05;;
37273;SDS011;23161;51.250;5.554;2022-10-16T06:48:41;1.52;;;1.42;;
37273;SDS011;23161;51.250;5.554;2022-10-16T06:51:17;1.98;;;1.13;;
37273;SDS011;23161;51.250;5.554;2022-10-16T06:53:48;2.42;;;1.02;;
37273;SDS011;23161;51.250;5.554;2022-10-16T06:56:17;1.52;;;1.42;;
37273;SDS011;23161;51.250;5.554;2022-10-16T06:58:45;1.38;;;1.27;;
37273;SDS011;23161;51.250;5.554;2022-10-16T07:01:12;3.47;;;1.52;;
37273;SDS011;23161;51.250;5.554;2022-10-16T07:03:40;1.85;;;1.20;;
37273;SDS011;23161;51.250;5.554;2022-10-16T07:06:07;2.72;;;1.40;;
37273;SDS011;23161;51.250;5.554;2022-10-16T07:08:36;3.10;;;1.58;;
37273;SDS011;23161;51.250;5.554;2022-10-16T07:11:05;1.63;;;1.45;;
37273;SDS011;23161;51.250;5.554;2022-10-16T07:13:36;1.35;;;1.25;;
37273;SDS011;23161;51.250;5.554;2022-10-16T07:18:36;6.78;;;2.35;;
37273;SDS011;23161;51.250;5.554;2022-10-16T07:21:05;3.67;;;1.85;;
37273;SDS011;23161;51.250;5.554;2022-10-16T07:23:41;3.22;;;1.13;;
37273;SDS011;23161;51.250;5.554;2022-10-16T07:26:07;3.90;;;1.73;;
37273;SDS011;23161;51.250;5.554;2022-10-16T07:28:34;9.07;;;3.05;;
37273;SDS011;23161;51.250;5.554;2022-10-16T07:31:04;7.45;;;3.67;;
37273;SDS011;23161;51.250;5.554;2022-10-16T07:33:33;13.30;;;4.60;;
37273;SDS011;23161;51.250;5.554;2022-10-16T07:36:00;8.10;;;2.05;;
37273;SDS011;23161;51.250;5.554;2022-10-16T07:38:27;14.70;;;2.22;;
37273;SDS011;23161;51.250;5.554;2022-10-16T07:40:59;3.47;;;2.38;;
37273;SDS011;23161;51.250;5.554;2022-10-16T07:43:27;9.55;;;2.30;;
37273;SDS011;23161;51.250;5.554;2022-10-16T07:45:53;4.10;;;1.45;;
37273;SDS011;23161;51.250;5.554;2022-10-16T07:48:21;4.95;;;1.38;;
37273;SDS011;23161;51.250;5.554;2022-10-16T07:50:48;3.53;;;1.75;;
37273;SDS011;23161;51.250;5.554;2022-10-16T07:53:14;3.03;;;2.05;;
37273;SDS011;23161;51.250;5.554;2022-10-16T07:55:40;2.65;;;1.38;;
37273;SDS011;23161;51.250;5.554;2022-10-16T07:58:06;1.70;;;1.60;;
37273;SDS011;23161;51.250;5.554;2022-10-16T08:00:32;3.15;;;0.93;;
37273;SDS011;23161;51.250;5.554;2022-10-16T08:03:00;4.03;;;1.40;;
37273;SDS011;23161;51.250;5.554;2022-10-16T08:05:29;4.35;;;2.13;;
37273;SDS011;23161;51.250;5.554;2022-10-16T08:07:56;1.35;;;1.30;;
37273;SDS011;23161;51.250;5.554;2022-10-16T08:10:23;1.75;;;1.52;;
37273;SDS011;23161;51.250;5.554;2022-10-16T08:12:51;6.93;;;1.15;;
37273;SDS011;23161;51.250;5.554;2022-10-16T08:15:17;5.97;;;1.50;;
37273;SDS011;23161;51.250;5.554;2022-10-16T08:17:44;2.85;;;1.38;;
37273;SDS011;23161;51.250;5.554;2022-10-16T08:20:11;1.27;;;1.05;;
37273;SDS011;23161;51.250;5.554;2022-10-16T08:22:37;1.40;;;1.30;;
37273;SDS011;23161;51.250;5.554;2022-10-16T08:25:03;3.90;;;2.38;;
37273;SDS011;23161;51.250;5.554;2022-10-16T08:27:32;7.28;;;1.40;;
37273;SDS011;23161;51.250;5.554;2022-10-16T08:29:58;1.23;;;1.10;;
37273;SDS011;23161;51.250;5.554;2022-10-16T08:32:24;2.78;;;1.52;;
37273;SDS011;23161;51.250;5.554;2022-10-16T08:34:49;1.33;;;0.90;;
37273;SDS011;23161;51.250;5.554;2022-10-16T08:37:16;1.08;;;0.98;;
37273;SDS011;23161;51.250;5.554;2022-10-16T08:39:41;2.08;;;0.85;;
37273;SDS011;23161;51.250;5.554;2022-10-16T08:42:16;3.50;;;1.77;;
37273;SDS011;23161;51.250;5.554;2022-10-16T08:50:28;1.20;;;1.10;;
37273;SDS011;23161;51.250;5.554;2022-10-16T08:52:57;2.00;;;1.52;;
37273;SDS011;23161;51.250;5.554;2022-10-16T08:55:30;0.70;;;0.68;;
37273;SDS011;23161;51.250;5.554;2022-10-16T08:58:07;3.10;;;2.35;;
37273;SDS011;23161;51.250;5.554;2022-10-16T09:00:40;8.18;;;1.63;;
37273;SDS011;23161;51.250;5.554;2022-10-16T09:06:41;1.20;;;1.08;;
37273;SDS011;23161;51.250;5.554;2022-10-16T09:11:57;2.67;;;1.15;;
37273;SDS011;23161;51.250;5.554;2022-10-16T09:22:32;1.42;;;1.33;;
37273;SDS011;23161;51.250;5.554;2022-10-16T09:25:04;2.97;;;2.35;;
37273;SDS011;23161;51.250;5.554;2022-10-16T09:27:38;2.00;;;1.30;;
37273;SDS011;23161;51.250;5.554;2022-10-16T09:30:14;1.17;;;1.05;;
37273;SDS011;23161;51.250;5.554;2022-10-16T09:32:42;3.55;;;1.85;;
37273;SDS011;23161;51.250;5.554;2022-10-16T09:35:14;3.22;;;1.58;;
37273;SDS011;23161;51.250;5.554;2022-10-16T09:37:56;1.70;;;1.27;;
37273;SDS011;23161;51.250;5.554;2022-10-16T09:40:26;1.45;;;0.90;;
37273;SDS011;23161;51.250;5.554;2022-10-16T09:45:58;1.70;;;1.08;;
37273;SDS011;23161;51.250;5.554;2022-10-16T09:48:43;3.92;;;1.80;;
37273;SDS011;23161;51.250;5.554;2022-10-16T09:51:17;0.60;;;0.57;;
37273;SDS011;23161;51.250;5.554;2022-10-16T09:53:45;1.02;;;0.82;;
37273;SDS011;23161;51.250;5.554;2022-10-16T09:56:12;8.80;;;1.52;;
37273;SDS011;23161;51.250;5.554;2022-10-16T09:58:58;1.15;;;1.05;;
37273;SDS011;23161;51.250;5.554;2022-10-16T10:01:52;5.30;;;1.08;;
37273;SDS011;23161;51.250;5.554;2022-10-16T10:04:21;2.83;;;0.93;;
37273;SDS011;23161;51.250;5.554;2022-10-16T10:06:49;1.80;;;0.80;;
37273;SDS011;23161;51.250;5.554;2022-10-16T10:09:27;2.88;;;1.25;;
37273;SDS011;23161;51.250;5.554;2022-10-16T10:12:00;6.47;;;1.47;;
37273;SDS011;23161;51.250;5.554;2022-10-16T10:22:31;3.00;;;0.90;;
37273;SDS011;23161;51.250;5.554;2022-10-16T10:32:58;1.95;;;1.17;;
37273;SDS011;23161;51.250;5.554;2022-10-16T10:35:39;4.25;;;1.33;;
37273;SDS011;23161;51.250;5.554;2022-10-16T10:47:05;4.95;;;0.93;;
37273;SDS011;23161;51.250;5.554;2022-10-16T10:58:23;3.03;;;1.27;;
37273;SDS011;23161;51.250;5.554;2022-10-16T11:01:13;2.15;;;0.93;;
37273;SDS011;23161;51.250;5.554;2022-10-16T11:07:32;5.35;;;1.15;;
37273;SDS011;23161;51.250;5.554;2022-10-16T11:10:07;1.23;;;0.63;;
37273;SDS011;23161;51.250;5.554;2022-10-16T11:12:40;2.25;;;1.30;;
37273;SDS011;23161;51.250;5.554;2022-10-16T11:15:15;6.35;;;1.92;;
37273;SDS011;23161;51.250;5.554;2022-10-16T11:17:47;4.93;;;1.73;;
37273;SDS011;23161;51.250;5.554;2022-10-16T11:20:32;2.42;;;1.50;;
37273;SDS011;23161;51.250;5.554;2022-10-16T11:23:14;1.13;;;0.73;;
37273;SDS011;23161;51.250;5.554;2022-10-16T11:25:42;6.63;;;0.98;;
37273;SDS011;23161;51.250;5.554;2022-10-16T11:39:20;2.90;;;0.93;;
37273;SDS011;23161;51.250;5.554;2022-10-16T11:41:53;3.25;;;1.35;;
37273;SDS011;23161;51.250;5.554;2022-10-16T11:47:05;2.85;;;1.48;;
37273;SDS011;23161;51.250;5.554;2022-10-16T11:49:34;4.45;;;1.92;;
37273;SDS011;23161;51.250;5.554;2022-10-16T11:52:06;5.95;;;1.67;;
37273;SDS011;23161;51.250;5.554;2022-10-16T11:57:47;1.75;;;1.00;;
37273;SDS011;23161;51.250;5.554;2022-10-16T12:00:28;4.35;;;1.30;;
37273;SDS011;23161;51.250;5.554;2022-10-16T12:08:26;2.88;;;1.40;;
37273;SDS011;23161;51.250;5.554;2022-10-16T12:10:52;1.92;;;1.58;;
37273;SDS011;23161;51.250;5.554;2022-10-16T12:13:36;3.05;;;1.40;;
37273;SDS011;23161;51.250;5.554;2022-10-16T12:16:25;2.80;;;0.82;;
37273;SDS011;23161;51.250;5.554;2022-10-16T12:19:02;1.75;;;0.93;;
37273;SDS011;23161;51.250;5.554;2022-10-16T12:21:36;1.85;;;0.77;;
37273;SDS011;23161;51.250;5.554;2022-10-16T12:24:02;3.17;;;0.75;;
37273;SDS011;23161;51.250;5.554;2022-10-16T12:26:36;0.98;;;0.77;;
37273;SDS011;23161;51.250;5.554;2022-10-16T12:31:52;2.22;;;0.85;;
37273;SDS011;23161;51.250;5.554;2022-10-16T12:34:22;1.67;;;1.02;;
37273;SDS011;23161;51.250;5.554;2022-10-16T12:37:34;2.70;;;1.50;;
37273;SDS011;23161;51.250;5.554;2022-10-16T12:40:14;5.40;;;1.02;;
37273;SDS011;23161;51.250;5.554;2022-10-16T12:42:46;2.30;;;0.70;;
37273;SDS011;23161;51.250;5.554;2022-10-16T12:45:33;0.47;;;0.47;;
37273;SDS011;23161;51.250;5.554;2022-10-16T12:48:00;2.08;;;1.02;;
37273;SDS011;23161;51.250;5.554;2022-10-16T12:52:56;1.13;;;1.10;;
37273;SDS011;23161;51.250;5.554;2022-10-16T12:55:23;8.85;;;0.95;;
37273;SDS011;23161;51.250;5.554;2022-10-16T13:08:35;1.05;;;0.85;;
37273;SDS011;23161;51.250;5.554;2022-10-16T13:30:28;1.13;;;1.02;;
37273;SDS011;23161;51.250;5.554;2022-10-16T13:32:59;1.33;;;0.80;;
37273;SDS011;23161;51.250;5.554;2022-10-16T13:35:28;1.70;;;0.90;;
37273;SDS011;23161;51.250;5.554;2022-10-16T13:38:13;2.38;;;1.08;;
37273;SDS011;23161;51.250;5.554;2022-10-16T13:40:48;7.68;;;1.05;;
37273;SDS011;23161;51.250;5.554;2022-10-16T13:43:16;2.60;;;0.95;;
37273;SDS011;23161;51.250;5.554;2022-10-16T13:45:52;3.13;;;1.08;;
37273;SDS011;23161;51.250;5.554;2022-10-16T13:48:21;3.72;;;1.23;;
37273;SDS011;23161;51.250;5.554;2022-10-16T13:50:57;2.35;;;1.10;;
37273;SDS011;23161;51.250;5.554;2022-10-16T13:53:29;1.90;;;0.80;;
37273;SDS011;23161;51.250;5.554;2022-10-16T13:55:56;0.95;;;0.60;;
37273;SDS011;23161;51.250;5.554;2022-10-16T13:58:22;0.63;;;0.63;;
37273;SDS011;23161;51.250;5.554;2022-10-16T14:00:55;2.53;;;1.23;;
37273;SDS011;23161;51.250;5.554;2022-10-16T14:03:23;3.50;;;0.63;;
37273;SDS011;23161;51.250;5.554;2022-10-16T14:05:54;1.65;;;1.13;;
37273;SDS011;23161;51.250;5.554;2022-10-16T14:08:22;2.92;;;0.85;;
37273;SDS011;23161;51.250;5.554;2022-10-16T14:10:51;1.42;;;0.57;;
37273;SDS011;23161;51.250;5.554;2022-10-16T14:13:20;1.85;;;0.80;;
37273;SDS011;23161;51.250;5.554;2022-10-16T14:16:09;1.63;;;0.85;;
37273;SDS011;23161;51.250;5.554;2022-10-16T14:18:41;1.00;;;0.65;;
37273;SDS011;23161;51.250;5.554;2022-10-16T14:23:39;1.55;;;0.95;;
37273;SDS011;23161;51.250;5.554;2022-10-16T14:28:35;2.60;;;0.80;;
37273;SDS011;23161;51.250;5.554;2022-10-16T14:31:02;3.60;;;1.10;;
37273;SDS011;23161;51.250;5.554;2022-10-16T14:33:47;3.30;;;1.38;;
37273;SDS011;23161;51.250;5.554;2022-10-16T14:36:13;4.75;;;1.02;;
37273;SDS011;23161;51.250;5.554;2022-10-16T14:41:27;4.22;;;1.20;;
37273;SDS011;23161;51.250;5.554;2022-10-16T14:43:55;2.97;;;0.70;;
37273;SDS011;23161;51.250;5.554;2022-10-16T14:46:28;4.28;;;0.60;;
37273;SDS011;23161;51.250;5.554;2022-10-16T14:49:00;1.90;;;1.42;;
37273;SDS011;23161;51.250;5.554;2022-10-16T14:51:45;2.13;;;1.52;;
37273;SDS011;23161;51.250;5.554;2022-10-16T14:54:13;2.05;;;0.82;;
37273;SDS011;23161;51.250;5.554;2022-10-16T14:56:50;2.15;;;0.73;;
37273;SDS011;23161;51.250;5.554;2022-10-16T14:59:25;0.77;;;0.50;;
37273;SDS011;23161;51.250;5.554;2022-10-16T15:01:55;1.30;;;0.82;;
37273;SDS011;23161;51.250;5.554;2022-10-16T15:04:21;2.85;;;0.73;;
37273;SDS011;23161;51.250;5.554;2022-10-16T15:06:47;1.30;;;1.15;;
37273;SDS011;23161;51.250;5.554;2022-10-16T15:09:13;1.77;;;0.75;;
37273;SDS011;23161;51.250;5.554;2022-10-16T15:11:39;3.85;;;1.30;;
37273;SDS011;23161;51.250;5.554;2022-10-16T15:14:05;6.38;;;0.80;;
37273;SDS011;23161;51.250;5.554;2022-10-16T15:16:31;2.58;;;1.38;;
37273;SDS011;23161;51.250;5.554;2022-10-16T15:18:57;1.15;;;0.82;;
37273;SDS011;23161;51.250;5.554;2022-10-16T15:23:53;0.52;;;0.52;;
37273;SDS011;23161;51.250;5.554;2022-10-16T15:26:19;0.90;;;0.90;;
37273;SDS011;23161;51.250;5.554;2022-10-16T15:28:45;0.88;;;0.88;;
37273;SDS011;23161;51.250;5.554;2022-10-16T15:31:11;0.50;;;0.43;;
37273;SDS011;23161;51.250;5.554;2022-10-16T15:33:36;5.40;;;1.02;;
37273;SDS011;23161;51.250;5.554;2022-10-16T15:36:02;3.25;;;1.00;;
37273;SDS011;23161;51.250;5.554;2022-10-16T15:38:28;2.00;;;1.33;;
37273;SDS011;23161;51.250;5.554;2022-10-16T15:40:55;5.93;;;1.38;;
37273;SDS011;23161;51.250;5.554;2022-10-16T15:43:21;4.47;;;1.13;;
37273;SDS011;23161;51.250;5.554;2022-10-16T15:45:54;37.72;;;4.15;;
37273;SDS011;23161;51.250;5.554;2022-10-16T15:48:27;11.53;;;1.93;;
37273;SDS011;23161;51.250;5.554;2022-10-16T15:50:55;18.58;;;2.17;;
37273;SDS011;23161;51.250;5.554;2022-10-16T15:53:21;9.15;;;1.17;;
37273;SDS011;23161;51.250;5.554;2022-10-16T15:55:47;20.27;;;2.47;;
37273;SDS011;23161;51.250;5.554;2022-10-16T15:58:13;7.30;;;2.20;;
37273;SDS011;23161;51.250;5.554;2022-10-16T16:00:39;2.47;;;1.02;;
37273;SDS011;23161;51.250;5.554;2022-10-16T16:03:04;8.40;;;1.90;;
37273;SDS011;23161;51.250;5.554;2022-10-16T16:05:30;5.40;;;2.00;;
37273;SDS011;23161;51.250;5.554;2022-10-16T16:07:56;1.55;;;1.15;;
37273;SDS011;23161;51.250;5.554;2022-10-16T16:10:22;4.75;;;1.85;;
37273;SDS011;23161;51.250;5.554;2022-10-16T16:12:48;1.42;;;1.38;;
37273;SDS011;23161;51.250;5.554;2022-10-16T16:15:17;2.78;;;1.27;;
37273;SDS011;23161;51.250;5.554;2022-10-16T16:17:47;14.43;;;3.08;;
37273;SDS011;23161;51.250;5.554;2022-10-16T16:20:13;23.92;;;2.60;;
37273;SDS011;23161;51.250;5.554;2022-10-16T16:22:39;13.45;;;2.63;;
37273;SDS011;23161;51.250;5.554;2022-10-16T16:25:05;6.85;;;1.13;;
37273;SDS011;23161;51.250;5.554;2022-10-16T16:27:32;6.97;;;1.85;;
37273;SDS011;23161;51.250;5.554;2022-10-16T16:30:03;20.40;;;5.07;;
37273;SDS011;23161;51.250;5.554;2022-10-16T16:32:32;8.05;;;3.08;;
37273;SDS011;23161;51.250;5.554;2022-10-16T16:34:59;5.05;;;2.35;;
37273;SDS011;23161;51.250;5.554;2022-10-16T16:37:25;11.15;;;3.35;;
37273;SDS011;23161;51.250;5.554;2022-10-16T16:39:51;21.83;;;4.53;;
37273;SDS011;23161;51.250;5.554;2022-10-16T16:42:19;15.02;;;4.88;;
37273;SDS011;23161;51.250;5.554;2022-10-16T16:44:47;40.75;;;4.25;;
37273;SDS011;23161;51.250;5.554;2022-10-16T16:47:13;26.35;;;3.85;;
37273;SDS011;23161;51.250;5.554;2022-10-16T16:49:39;9.43;;;2.97;;
37273;SDS011;23161;51.250;5.554;2022-10-16T16:52:05;8.43;;;3.15;;
37273;SDS011;23161;51.250;5.554;2022-10-16T16:54:32;9.52;;;2.72;;
37273;SDS011;23161;51.250;5.554;2022-10-16T16:56:57;18.35;;;3.17;;
37273;SDS011;23161;51.250;5.554;2022-10-16T16:59:24;12.57;;;3.20;;
37273;SDS011;23161;51.250;5.554;2022-10-16T17:01:50;6.35;;;2.53;;
37273;SDS011;23161;51.250;5.554;2022-10-16T17:04:16;9.20;;;3.05;;
37273;SDS011;23161;51.250;5.554;2022-10-16T17:06:42;5.70;;;3.08;;
37273;SDS011;23161;51.250;5.554;2022-10-16T17:09:08;17.05;;;2.38;;
37273;SDS011;23161;51.250;5.554;2022-10-16T17:11:37;4.93;;;2.93;;
37273;SDS011;23161;51.250;5.554;2022-10-16T17:14:06;4.03;;;2.40;;
37273;SDS011;23161;51.250;5.554;2022-10-16T17:16:34;6.57;;;2.42;;
37273;SDS011;23161;51.250;5.554;2022-10-16T17:19:12;11.82;;;2.58;;
37273;SDS011;23161;51.250;5.554;2022-10-16T17:21:40;3.00;;;2.00;;
37273;SDS011;23161;51.250;5.554;2022-10-16T17:24:06;4.82;;;1.92;;
37273;SDS011;23161;51.250;5.554;2022-10-16T17:26:32;6.57;;;1.63;;
37273;SDS011;23161;51.250;5.554;2022-10-16T17:29:02;6.70;;;2.28;;
37273;SDS011;23161;51.250;5.554;2022-10-16T17:31:29;5.45;;;1.67;;
37273;SDS011;23161;51.250;5.554;2022-10-16T17:33:57;10.35;;;1.95;;
37273;SDS011;23161;51.250;5.554;2022-10-16T17:36:24;5.40;;;1.15;;
37273;SDS011;23161;51.250;5.554;2022-10-16T17:38:57;3.70;;;1.67;;
37273;SDS011;23161;51.250;5.554;2022-10-16T17:41:25;4.28;;;2.17;;
37273;SDS011;23161;51.250;5.554;2022-10-16T17:43:51;7.68;;;2.45;;
37273;SDS011;23161;51.250;5.554;2022-10-16T17:46:19;7.47;;;2.65;;